Time;durP1;ratioP1;P1;durP2;ratioP2;P2;SDS_P1;SDS_P2;PMS_P1;PMS_P2;Temp;Humidity;BMP_temperature;BMP_pressure;BME280_temperature;BME280_humidity;BME280_pressure;Samples;Min_cycle;Max_cycle;Signal;HPM_P1;HPM_P2
2022/07/16 00:02:20;;;;;;;1.75;1.40;;;22.10;52.00;;;;;;5012755;28;20227;-64
2022/07/16 00:04:46;;;;;;;4.13;2.00;;;22.10;52.20;;;;;;5013124;28;20224;-64
2022/07/16 00:07:11;;;;;;;2.00;1.80;;;22.10;52.20;;;;;;5013483;28;20654;-64
2022/07/16 00:09:38;;;;;;;2.00;1.60;;;22.10;52.10;;;;;;5012499;28;20199;-64
2022/07/16 00:12:03;;;;;;;3.30;1.55;;;22.00;52.20;;;;;;5013153;28;20553;-64
2022/07/16 00:14:29;;;;;;;3.33;1.92;;;22.10;52.10;;;;;;5013342;28;20168;-64
2022/07/16 00:16:54;;;;;;;3.22;1.50;;;22.10;52.20;;;;;;5012381;28;20172;-65
2022/07/16 00:19:20;;;;;;;3.50;2.30;;;22.10;52.20;;;;;;5013082;28;20199;-65
2022/07/16 00:21:51;;;;;;;2.88;1.75;;;22.10;52.20;;;;;;5012888;28;20204;-65
2022/07/16 00:24:16;;;;;;;2.13;1.50;;;22.10;52.10;;;;;;5012490;28;20544;-65
2022/07/16 00:26:42;;;;;;;3.42;2.20;;;22.00;52.20;;;;;;5012953;28;20208;-64
2022/07/16 00:29:08;;;;;;;2.33;1.63;;;22.10;52.10;;;;;;5013077;28;20532;-64
2022/07/16 00:31:35;;;;;;;2.88;1.90;;;22.00;52.00;;;;;;5012428;28;20184;-64
2022/07/16 00:34:01;;;;;;;3.67;1.85;;;22.00;52.20;;;;;;5012646;28;20569;-64
2022/07/16 00:36:26;;;;;;;2.20;1.42;;;22.00;52.20;;;;;;5013196;28;20262;-64
2022/07/16 00:38:52;;;;;;;2.83;1.67;;;22.00;52.20;;;;;;5012010;28;20541;-64
2022/07/16 00:41:17;;;;;;;2.70;1.70;;;22.10;52.30;;;;;;5012886;28;20185;-64
2022/07/16 00:43:52;;;;;;;2.80;1.88;;;22.00;52.20;;;;;;5012108;28;20169;-64
2022/07/16 00:46:18;;;;;;;1.98;1.52;;;22.00;52.20;;;;;;5012691;28;20210;-63
2022/07/16 00:48:44;;;;;;;3.38;1.75;;;22.00;52.20;;;;;;5012654;28;20172;-63
2022/07/16 00:51:09;;;;;;;2.72;1.85;;;22.00;52.90;;;;;;5012266;28;20172;-63
2022/07/16 00:53:35;;;;;;;1.95;1.65;;;22.00;52.30;;;;;;5013069;28;20183;-64
2022/07/16 00:56:01;;;;;;;1.83;1.50;;;22.00;52.30;;;;;;5015066;28;20543;-64
2022/07/16 00:58:26;;;;;;;2.33;1.65;;;22.00;52.30;;;;;;5016102;28;20173;-64
2022/07/16 01:00:52;;;;;;;2.53;1.50;;;22.10;52.40;;;;;;5016499;28;20173;-64
2022/07/16 01:03:17;;;;;;;2.05;1.40;;;22.00;52.40;;;;;;5015257;28;20169;-64
2022/07/16 01:05:43;;;;;;;3.13;2.00;;;22.00;52.40;;;;;;5015612;28;20243;-64
2022/07/16 01:08:09;;;;;;;1.48;1.38;;;22.00;52.40;;;;;;5015473;28;20306;-64
2022/07/16 01:10:34;;;;;;;3.67;2.15;;;22.00;52.50;;;;;;5015429;28;20175;-64
2022/07/16 01:13:00;;;;;;;3.35;1.85;;;22.00;52.50;;;;;;5014347;28;20207;-64
2022/07/16 01:15:26;;;;;;;1.95;1.42;;;22.00;52.50;;;;;;5016567;28;20543;-65
2022/07/16 01:17:51;;;;;;;2.03;1.63;;;22.00;52.50;;;;;;5016112;28;20649;-65
2022/07/16 01:20:17;;;;;;;2.78;1.40;;;22.00;53.20;;;;;;5014370;28;20180;-65
2022/07/16 01:22:42;;;;;;;1.73;1.40;;;22.00;52.60;;;;;;5016240;28;20259;-64
2022/07/16 01:25:10;;;;;;;2.28;2.00;;;22.00;52.70;;;;;;5014960;28;20164;-64
2022/07/16 01:27:35;;;;;;;3.22;1.52;;;22.00;52.60;;;;;;5015454;28;20584;-64
2022/07/16 01:30:00;;;;;;;1.63;1.52;;;22.00;52.60;;;;;;5015846;28;20165;-64
2022/07/16 01:32:26;;;;;;;2.65;1.90;;;22.00;52.60;;;;;;5016327;28;20180;-64
2022/07/16 01:34:52;;;;;;;2.65;1.75;;;22.00;52.70;;;;;;5015377;28;20168;-65
2022/07/16 01:37:17;;;;;;;1.92;1.70;;;22.00;52.70;;;;;;5015956;28;20227;-65
2022/07/16 01:39:43;;;;;;;2.55;1.63;;;22.00;52.70;;;;;;5015913;28;20165;-65
2022/07/16 01:42:10;;;;;;;2.80;1.75;;;21.90;52.70;;;;;;5015253;28;20177;-64
2022/07/16 01:44:37;;;;;;;2.33;1.70;;;22.00;52.80;;;;;;5015811;28;20179;-64
2022/07/16 01:47:03;;;;;;;2.25;1.35;;;21.90;52.70;;;;;;5014788;28;20679;-64
2022/07/16 01:49:32;;;;;;;3.00;1.65;;;21.90;52.70;;;;;;5016016;28;20184;-64
2022/07/16 01:52:03;;;;;;;3.38;1.67;;;21.90;52.80;;;;;;5014496;28;20172;-63
2022/07/16 01:54:29;;;;;;;2.35;1.50;;;21.90;52.80;;;;;;5015258;28;20172;-64
2022/07/16 01:56:54;;;;;;;1.65;1.50;;;21.90;52.80;;;;;;5015523;28;20544;-64
2022/07/16 01:59:20;;;;;;;2.28;1.60;;;21.90;52.80;;;;;;5015575;28;20657;-64
2022/07/16 02:01:45;;;;;;;3.08;1.67;;;21.90;52.80;;;;;;5015007;28;20184;-64
2022/07/16 02:04:11;;;;;;;2.88;1.92;;;21.90;52.90;;;;;;5015645;28;20191;-64
2022/07/16 02:06:36;;;;;;;2.15;1.30;;;21.90;52.90;;;;;;5014309;28;20717;-64
2022/07/16 02:09:02;;;;;;;4.00;1.80;;;21.90;52.90;;;;;;5014577;28;20189;-64
2022/07/16 02:11:27;;;;;;;1.60;1.50;;;21.90;53.50;;;;;;5015360;28;20187;-64
2022/07/16 02:13:53;;;;;;;1.65;1.55;;;21.90;52.90;;;;;;5015106;28;20176;-65
2022/07/16 02:16:18;;;;;;;2.65;1.50;;;21.90;52.90;;;;;;5014756;28;20183;-65
2022/07/16 02:18:44;;;;;;;1.42;1.33;;;21.90;52.90;;;;;;5015366;28;20184;-65
2022/07/16 02:21:09;;;;;;;2.75;1.60;;;21.90;53.00;;;;;;5015040;28;20176;-65
2022/07/16 02:23:35;;;;;;;2.28;1.50;;;21.90;53.00;;;;;;5014987;28;20538;-65
2022/07/16 02:26:00;;;;;;;1.60;1.40;;;21.90;53.00;;;;;;5014754;28;20670;-64
2022/07/16 02:28:26;;;;;;;1.65;1.55;;;21.90;53.10;;;;;;5015051;28;20184;-64
2022/07/16 02:30:51;;;;;;;2.30;1.35;;;21.90;53.10;;;;;;5014307;28;20172;-64
2022/07/16 02:33:18;;;;;;;3.65;1.73;;;21.90;53.10;;;;;;5015120;28;20177;-64
2022/07/16 02:35:43;;;;;;;1.90;1.77;;;21.90;53.20;;;;;;5014880;28;20176;-65
2022/07/16 02:38:09;;;;;;;1.67;1.40;;;21.90;53.10;;;;;;5014421;28;20267;-65
2022/07/16 02:40:35;;;;;;;2.35;1.70;;;21.90;53.20;;;;;;5014836;28;20200;-65
2022/07/16 02:43:02;;;;;;;2.42;1.90;;;21.90;53.20;;;;;;5014550;28;20177;-64
2022/07/16 02:45:27;;;;;;;1.95;1.63;;;21.90;53.20;;;;;;5014279;28;20184;-64
2022/07/16 02:47:53;;;;;;;3.28;1.90;;;21.90;53.20;;;;;;5014670;28;20299;-64
2022/07/16 02:50:18;;;;;;;3.65;2.13;;;21.90;53.20;;;;;;5013967;28;20180;-64
2022/07/16 02:52:44;;;;;;;1.75;1.63;;;21.90;53.20;;;;;;5014468;28;20647;-64
2022/07/16 02:55:10;;;;;;;2.92;1.92;;;21.90;53.30;;;;;;5014612;28;20169;-64
2022/07/16 02:57:35;;;;;;;2.92;1.83;;;21.80;53.20;;;;;;5014039;28;20183;-64
2022/07/16 03:00:01;;;;;;;1.60;1.50;;;21.80;53.30;;;;;;5014461;28;20177;-64
2022/07/16 03:02:26;;;;;;;2.03;1.58;;;21.80;53.30;;;;;;5014647;28;20180;-64
2022/07/16 03:04:52;;;;;;;1.52;1.42;;;21.80;53.30;;;;;;5013306;28;20358;-64
2022/07/16 03:07:17;;;;;;;1.52;1.42;;;21.90;53.40;;;;;;5014422;28;20297;-65
2022/07/16 03:09:43;;;;;;;1.95;1.30;;;21.80;53.40;;;;;;5014425;28;20311;-65
2022/07/16 03:12:08;;;;;;;1.67;1.30;;;21.80;53.40;;;;;;5013581;28;20285;-65
2022/07/16 03:14:34;;;;;;;2.42;1.42;;;21.80;53.40;;;;;;5014246;28;20591;-65
2022/07/16 03:16:59;;;;;;;2.22;1.83;;;21.80;53.40;;;;;;5013902;28;20263;-65
2022/07/16 03:19:25;;;;;;;2.15;1.55;;;21.80;53.50;;;;;;5013131;28;20284;-65
2022/07/16 03:21:50;;;;;;;2.05;1.52;;;21.80;53.40;;;;;;5013892;28;20275;-65
2022/07/16 03:24:16;;;;;;;1.50;1.40;;;21.80;53.50;;;;;;5013942;28;20174;-64
2022/07/16 03:26:41;;;;;;;2.85;1.85;;;21.80;53.50;;;;;;5013109;28;20204;-64
2022/07/16 03:29:07;;;;;;;1.50;1.40;;;21.80;53.50;;;;;;5014183;28;20176;-64
2022/07/16 03:31:32;;;;;;;1.65;1.52;;;21.80;53.60;;;;;;5014183;28;20173;-64
2022/07/16 03:33:58;;;;;;;1.67;1.30;;;21.80;53.70;;;;;;5012954;28;20173;-64
2022/07/16 03:36:26;;;;;;;1.70;1.60;;;21.80;53.60;;;;;;5013876;28;20177;-64
2022/07/16 03:39:00;;;;;;;2.28;1.52;;;21.80;53.60;;;;;;5013782;28;20200;-64
2022/07/16 03:41:25;;;;;;;2.65;1.40;;;21.80;53.70;;;;;;5013122;28;20180;-64
2022/07/16 03:43:51;;;;;;;1.55;1.45;;;21.80;53.70;;;;;;5013698;28;20180;-64
2022/07/16 03:46:16;;;;;;;2.00;1.60;;;21.80;53.70;;;;;;5013569;28;20208;-64
2022/07/16 03:48:42;;;;;;;1.65;1.33;;;21.80;53.70;;;;;;5012972;28;20266;-64
2022/07/16 03:51:08;;;;;;;2.13;1.60;;;21.80;53.70;;;;;;5013710;28;20239;-64
2022/07/16 03:53:34;;;;;;;2.40;1.70;;;21.80;53.80;;;;;;5013021;28;20180;-64
2022/07/16 03:55:59;;;;;;;1.63;1.42;;;21.80;53.80;;;;;;5013147;28;20602;-64
2022/07/16 03:58:26;;;;;;;2.17;1.40;;;21.70;53.80;;;;;;5013774;28;20172;-64
2022/07/16 04:00:52;;;;;;;1.48;1.33;;;21.80;53.80;;;;;;5012813;28;20180;-64
2022/07/16 04:03:17;;;;;;;1.40;1.30;;;21.80;53.90;;;;;;5013415;28;20294;-64
2022/07/16 04:05:43;;;;;;;2.35;1.48;;;21.70;53.80;;;;;;5013017;28;20236;-64
2022/07/16 04:08:09;;;;;;;1.67;1.33;;;21.80;54.00;;;;;;5012499;28;20596;-64
2022/07/16 04:10:35;;;;;;;1.75;1.40;;;21.80;54.00;;;;;;5013370;28;20176;-64
2022/07/16 04:13:00;;;;;;;1.52;1.42;;;21.80;54.00;;;;;;5013154;28;20591;-64
2022/07/16 04:15:26;;;;;;;3.45;1.77;;;21.80;54.00;;;;;;5012554;28;20526;-65
2022/07/16 04:17:51;;;;;;;1.65;1.27;;;21.80;54.00;;;;;;5012896;28;20176;-65
2022/07/16 04:20:17;;;;;;;2.00;1.65;;;21.80;53.90;;;;;;5013203;28;20179;-64
2022/07/16 04:22:42;;;;;;;3.20;1.70;;;21.80;54.60;;;;;;5012310;28;20184;-64
2022/07/16 04:25:08;;;;;;;1.42;1.30;;;21.70;54.00;;;;;;5013078;28;20169;-64
2022/07/16 04:27:33;;;;;;;2.42;1.52;;;21.70;54.10;;;;;;5012999;28;20212;-64
2022/07/16 04:29:59;;;;;;;2.00;1.38;;;21.70;54.10;;;;;;5011282;28;20263;-64
2022/07/16 04:32:24;;;;;;;1.83;1.42;;;21.70;54.00;;;;;;5013133;28;20184;-64
2022/07/16 04:34:50;;;;;;;1.80;1.58;;;21.70;54.10;;;;;;5012883;28;20244;-65
2022/07/16 04:37:15;;;;;;;2.75;1.30;;;21.70;54.10;;;;;;5012320;28;20382;-64
2022/07/16 04:39:41;;;;;;;1.73;1.52;;;21.70;54.10;;;;;;5012677;28;20180;-65
2022/07/16 04:42:06;;;;;;;1.48;1.38;;;21.70;54.20;;;;;;5012801;28;20642;-64
2022/07/16 04:44:32;;;;;;;1.45;1.35;;;21.70;54.30;;;;;;5012526;28;20181;-64
2022/07/16 04:46:57;;;;;;;1.58;1.45;;;21.70;54.40;;;;;;5012606;28;20208;-64
2022/07/16 04:49:23;;;;;;;2.90;1.60;;;21.70;54.30;;;;;;5013010;28;20188;-64
2022/07/16 04:51:48;;;;;;;2.10;1.75;;;21.70;54.40;;;;;;5011927;28;20191;-64
2022/07/16 04:54:14;;;;;;;1.95;1.50;;;21.70;54.40;;;;;;5012708;28;20176;-64
2022/07/16 04:56:39;;;;;;;1.55;1.27;;;21.70;54.50;;;;;;5012822;28;20177;-65
2022/07/16 04:59:05;;;;;;;2.35;1.70;;;21.70;54.50;;;;;;5011977;28;20542;-65
2022/07/16 05:01:30;;;;;;;2.38;1.85;;;21.70;54.50;;;;;;5013029;28;20172;-65
2022/07/16 05:03:56;;;;;;;1.63;1.45;;;21.70;54.50;;;;;;5011765;28;20546;-65
2022/07/16 05:06:22;;;;;;;1.20;1.08;;;21.70;54.60;;;;;;5012426;28;20231;-65
2022/07/16 05:08:47;;;;;;;2.13;1.48;;;21.70;54.60;;;;;;5012492;28;20180;-65
2022/07/16 05:11:13;;;;;;;2.40;1.45;;;21.70;54.60;;;;;;5011923;28;20758;-65
2022/07/16 05:13:38;;;;;;;1.85;1.58;;;21.70;54.60;;;;;;5012664;28;20578;-66
2022/07/16 05:16:04;;;;;;;1.40;1.30;;;21.80;54.80;;;;;;5012765;28;20635;-66
2022/07/16 05:18:29;;;;;;;2.55;1.40;;;21.70;54.70;;;;;;5012013;28;20571;-66
2022/07/16 05:20:55;;;;;;;2.67;1.58;;;21.80;54.80;;;;;;5012332;28;20174;-66
2022/07/16 05:23:21;;;;;;;1.55;1.40;;;21.80;54.80;;;;;;5012560;28;20180;-65
2022/07/16 05:25:46;;;;;;;1.35;1.25;;;21.80;54.80;;;;;;5011884;28;20177;-65
2022/07/16 05:28:12;;;;;;;1.45;1.35;;;21.80;54.80;;;;;;5012526;28;20212;-65
2022/07/16 05:30:37;;;;;;;2.45;1.50;;;21.80;54.80;;;;;;5012316;28;20593;-65
2022/07/16 05:33:03;;;;;;;2.33;1.40;;;21.80;54.80;;;;;;5011609;28;20655;-65
2022/07/16 05:35:28;;;;;;;1.70;1.40;;;21.80;54.70;;;;;;5012620;28;20177;-65
2022/07/16 05:37:54;;;;;;;2.45;1.70;;;21.80;54.80;;;;;;5012146;28;20582;-66
2022/07/16 05:40:20;;;;;;;1.50;1.27;;;21.80;54.80;;;;;;5011593;28;20180;-65
2022/07/16 05:42:45;;;;;;;1.55;1.42;;;21.80;54.80;;;;;;5015793;28;20185;-66
2022/07/16 05:45:11;;;;;;;1.52;1.30;;;21.80;54.80;;;;;;5015801;28;20604;-65
2022/07/16 05:47:36;;;;;;;1.30;1.20;;;21.80;54.80;;;;;;5015207;28;20222;-64
2022/07/16 05:50:03;;;;;;;1.00;1.00;;;21.80;54.80;;;;;;5015644;28;20176;-64
2022/07/16 05:52:29;;;;;;;2.08;1.10;;;21.80;54.90;;;;;;5014629;28;20234;-64
2022/07/16 05:54:54;;;;;;;1.27;1.17;;;21.80;54.90;;;;;;5014750;28;20168;-65
2022/07/16 05:57:20;;;;;;;1.52;1.30;;;21.80;54.80;;;;;;5015592;28;20639;-65
2022/07/16 05:59:45;;;;;;;2.88;1.40;;;21.90;55.00;;;;;;5015582;28;20180;-64
2022/07/16 06:02:11;;;;;;;2.63;1.67;;;21.90;55.00;;;;;;5015063;28;20177;-64
2022/07/16 06:04:36;;;;;;;1.20;1.10;;;21.90;55.00;;;;;;5015534;28;20220;-64
2022/07/16 06:07:02;;;;;;;1.77;1.40;;;21.90;55.00;;;;;;5015266;28;20215;-64
2022/07/16 06:09:27;;;;;;;1.42;1.20;;;21.90;55.00;;;;;;5014761;28;20259;-65
2022/07/16 06:11:53;;;;;;;1.45;1.35;;;21.90;55.00;;;;;;5015261;28;20219;-65
2022/07/16 06:14:18;;;;;;;1.52;1.42;;;21.90;55.00;;;;;;5014748;28;20165;-64
2022/07/16 06:16:44;;;;;;;1.15;1.05;;;21.90;55.00;;;;;;5015344;28;20188;-65
2022/07/16 06:19:10;;;;;;;2.95;1.52;;;21.90;54.90;;;;;;5015254;28;20172;-65
2022/07/16 06:21:35;;;;;;;2.33;1.30;;;21.90;54.80;;;;;;5014508;28;20181;-65
2022/07/16 06:24:01;;;;;;;1.30;1.20;;;22.00;54.90;;;;;;5014974;28;20179;-65
2022/07/16 06:26:26;;;;;;;1.40;1.30;;;22.00;54.80;;;;;;5015304;28;20220;-65
2022/07/16 06:28:52;;;;;;;1.58;1.27;;;22.00;54.90;;;;;;5014357;28;20200;-64
2022/07/16 06:31:17;;;;;;;1.33;1.23;;;22.00;54.80;;;;;;5015164;28;20251;-64
2022/07/16 06:33:43;;;;;;;1.30;1.20;;;22.00;54.70;;;;;;5014882;28;20179;-64
2022/07/16 06:36:08;;;;;;;1.15;1.05;;;22.10;54.80;;;;;;5014151;28;20176;-64
2022/07/16 06:38:34;;;;;;;2.20;1.45;;;22.10;54.80;;;;;;5014896;28;20180;-64
2022/07/16 06:40:59;;;;;;;2.47;1.48;;;22.10;54.80;;;;;;5014486;28;20184;-65
2022/07/16 06:43:25;;;;;;;2.08;1.30;;;22.10;54.80;;;;;;5014296;28;20647;-65
2022/07/16 06:45:50;;;;;;;2.10;1.25;;;22.10;54.90;;;;;;5014663;28;20180;-64
2022/07/16 06:48:16;;;;;;;1.40;1.30;;;22.00;54.90;;;;;;5014640;28;20737;-64
2022/07/16 06:50:41;;;;;;;1.92;1.50;;;22.00;55.00;;;;;;5013692;28;20183;-63
2022/07/16 06:53:07;;;;;;;1.65;1.27;;;22.00;55.20;;;;;;5013782;28;20236;-64
2022/07/16 06:55:32;;;;;;;2.28;1.30;;;22.00;55.40;;;;;;5014770;28;20697;-64
2022/07/16 06:57:58;;;;;;;2.40;1.35;;;22.10;55.50;;;;;;5013792;28;20188;-64
2022/07/16 07:00:23;;;;;;;1.35;1.25;;;22.10;55.50;;;;;;5014672;28;20176;-64
2022/07/16 07:02:49;;;;;;;1.65;1.10;;;22.10;55.30;;;;;;5014336;28;20184;-64
2022/07/16 07:05:14;;;;;;;1.30;1.20;;;22.10;55.40;;;;;;5013368;28;20395;-64
2022/07/16 07:07:40;;;;;;;2.72;1.40;;;22.10;55.30;;;;;;5013915;28;20335;-65
2022/07/16 07:10:05;;;;;;;2.13;1.30;;;22.10;55.30;;;;;;5014224;28;20535;-65
2022/07/16 07:12:32;;;;;;;1.30;1.20;;;22.10;55.30;;;;;;5013763;28;20722;-64
2022/07/16 07:14:58;;;;;;;1.35;0.98;;;22.10;55.20;;;;;;5014025;28;20258;-64
2022/07/16 07:17:23;;;;;;;1.73;1.15;;;22.20;55.50;;;;;;5014214;28;20208;-63
2022/07/16 07:19:49;;;;;;;2.10;1.17;;;22.20;55.40;;;;;;5013531;28;20271;-63
2022/07/16 07:22:14;;;;;;;1.75;1.00;;;22.30;55.40;;;;;;5013854;28;20726;-64
2022/07/16 07:24:40;;;;;;;1.98;1.10;;;22.30;55.30;;;;;;5013127;28;20169;-63
2022/07/16 07:27:05;;;;;;;2.38;1.10;;;22.30;55.30;;;;;;5014177;28;20227;-63
2022/07/16 07:29:31;;;;;;;3.00;1.20;;;22.40;55.30;;;;;;5013952;28;20175;-63
2022/07/16 07:31:57;;;;;;;3.20;1.30;;;22.40;55.30;;;;;;5013049;28;20230;-64
2022/07/16 07:34:22;;;;;;;1.20;1.00;;;22.40;55.30;;;;;;5013912;28;20208;-64
2022/07/16 07:36:48;;;;;;;2.05;1.50;;;22.40;55.40;;;;;;5013622;28;20188;-64
2022/07/16 07:39:13;;;;;;;2.20;0.90;;;22.50;55.40;;;;;;5013244;28;20172;-64
2022/07/16 07:41:39;;;;;;;3.33;1.63;;;22.40;55.40;;;;;;5013763;28;20230;-63
2022/07/16 07:44:04;;;;;;;2.35;1.83;;;22.40;55.40;;;;;;5013622;28;20637;-63
2022/07/16 07:46:30;;;;;;;3.63;1.40;;;22.40;55.50;;;;;;5013001;28;20751;-63
2022/07/16 07:48:55;;;;;;;2.10;1.15;;;22.40;55.50;;;;;;5013287;28;20263;-63
2022/07/16 07:51:21;;;;;;;1.40;1.23;;;22.40;55.40;;;;;;5013720;28;20181;-63
2022/07/16 07:53:47;;;;;;;3.42;1.48;;;22.50;55.50;;;;;;5012631;28;20669;-64
2022/07/16 07:56:13;;;;;;;2.13;1.20;;;22.50;55.40;;;;;;5013416;28;20654;-64
2022/07/16 07:58:38;;;;;;;1.50;1.08;;;22.50;55.40;;;;;;5013279;28;20188;-65
2022/07/16 08:01:04;;;;;;;2.28;1.38;;;22.50;55.30;;;;;;5012936;28;20255;-62
2022/07/16 08:03:29;;;;;;;2.22;1.27;;;22.60;56.00;;;;;;5013317;28;20172;-63
2022/07/16 08:05:55;;;;;;;2.47;1.23;;;22.60;55.30;;;;;;5012885;28;20220;-63
2022/07/16 08:08:20;;;;;;;1.65;1.08;;;22.50;55.40;;;;;;5012483;28;20415;-63
2022/07/16 08:10:46;;;;;;;2.28;1.20;;;22.50;55.40;;;;;;5013332;28;20211;-64
2022/07/16 08:13:12;;;;;;;1.13;1.02;;;22.50;55.40;;;;;;5013362;28;20336;-63
2022/07/16 08:15:37;;;;;;;1.52;1.20;;;22.50;55.50;;;;;;5012554;28;20635;-64
2022/07/16 08:18:03;;;;;;;2.55;1.13;;;22.50;55.50;;;;;;5013174;28;20539;-64
2022/07/16 08:20:28;;;;;;;1.17;0.90;;;22.50;55.60;;;;;;5013089;28;20179;-63
2022/07/16 08:22:54;;;;;;;2.15;1.00;;;22.50;55.60;;;;;;5012007;28;20251;-64
2022/07/16 08:28:03;;;;;;;2.67;0.85;;;22.50;55.50;;;;;;5011350;28;20251;-64
2022/07/16 08:30:29;;;;;;;2.05;1.00;;;22.50;55.50;;;;;;5013047;28;20522;-63
2022/07/16 08:32:54;;;;;;;2.33;1.10;;;22.50;56.10;;;;;;5012725;28;20204;-63
2022/07/16 08:35:20;;;;;;;1.90;1.33;;;22.50;55.60;;;;;;5012149;28;20196;-64
2022/07/16 08:37:46;;;;;;;1.38;1.10;;;22.50;55.60;;;;;;5013003;28;20263;-64
2022/07/16 08:40:14;;;;;;;1.77;1.13;;;22.50;55.60;;;;;;5012973;28;20172;-64
2022/07/16 08:42:39;;;;;;;2.95;1.75;;;22.50;55.50;;;;;;5012010;28;20661;-64
2022/07/16 08:45:06;;;;;;;1.67;1.02;;;22.50;55.30;;;;;;5012725;28;20180;-63
2022/07/16 08:47:32;;;;;;;2.20;1.20;;;22.60;55.30;;;;;;5012730;28;20212;-63
2022/07/16 08:49:59;;;;;;;2.35;1.17;;;22.50;55.20;;;;;;5010807;28;20176;-62
2022/07/16 08:52:26;;;;;;;8.98;1.33;;;22.60;55.30;;;;;;5012743;28;20660;-63
2022/07/16 08:54:51;;;;;;;2.72;0.90;;;22.50;55.20;;;;;;5011619;28;20180;-64
2022/07/16 08:57:17;;;;;;;4.20;1.48;;;22.40;55.20;;;;;;5010902;28;20662;-64
2022/07/16 08:59:43;;;;;;;2.55;1.10;;;22.50;55.20;;;;;;5012745;28;20536;-64
2022/07/16 09:02:11;;;;;;;3.15;1.20;;;22.50;55.20;;;;;;5012637;28;20200;-64
2022/07/16 09:04:36;;;;;;;4.82;1.23;;;22.50;55.20;;;;;;5010902;28;20236;-64
2022/07/16 09:07:02;;;;;;;2.10;1.08;;;22.50;55.20;;;;;;5011407;28;20666;-64
2022/07/16 09:09:27;;;;;;;2.70;1.25;;;22.60;55.10;;;;;;5012848;28;20251;-65
2022/07/16 09:11:53;;;;;;;2.63;0.90;;;22.60;55.00;;;;;;5011746;28;20519;-65
2022/07/16 09:14:19;;;;;;;3.67;1.10;;;22.70;54.80;;;;;;5012522;28;20172;-64
2022/07/16 09:16:46;;;;;;;1.50;0.90;;;22.70;54.80;;;;;;5014289;28;20259;-65
2022/07/16 09:19:19;;;;;;;2.13;1.00;;;22.70;55.00;;;;;;5015825;28;20187;-64
2022/07/16 09:21:58;;;;;;;1.08;0.70;;;22.70;55.00;;;;;;5016251;28;20180;-64
2022/07/16 09:24:34;;;;;;;1.50;0.75;;;22.60;55.00;;;;;;5015645;28;20224;-63
2022/07/16 09:27:10;;;;;;;1.88;1.10;;;22.70;54.90;;;;;;5016041;28;20220;-63
2022/07/16 09:29:46;;;;;;;1.30;0.80;;;22.80;54.70;;;;;;5016532;28;20168;-63
2022/07/16 09:32:13;;;;;;;1.25;0.80;;;22.80;54.70;;;;;;5015508;28;20180;-62
2022/07/16 09:34:38;;;;;;;1.95;0.90;;;22.90;54.70;;;;;;5016153;28;20181;-63
2022/07/16 09:37:05;;;;;;;2.63;0.95;;;22.80;54.70;;;;;;5016062;28;20186;-64
2022/07/16 09:39:31;;;;;;;2.13;0.93;;;22.80;54.60;;;;;;5015369;28;20177;-64
2022/07/16 09:41:57;;;;;;;2.38;0.93;;;22.70;54.60;;;;;;5015694;28;20215;-64
2022/07/16 09:44:24;;;;;;;2.15;1.33;;;22.70;54.80;;;;;;5015855;28;20267;-63
2022/07/16 09:47:00;;;;;;;2.38;0.80;;;22.70;54.90;;;;;;5015082;28;20227;-62
2022/07/16 09:49:26;;;;;;;2.85;1.10;;;22.80;54.90;;;;;;5015741;28;20642;-62
2022/07/16 09:51:52;;;;;;;2.47;1.05;;;22.80;54.70;;;;;;5015738;28;20200;-63
2022/07/16 09:54:46;;;;;;;1.27;0.88;;;22.90;54.60;;;;;;5014930;28;20204;-62
2022/07/16 09:57:17;;;;;;;2.25;1.05;;;22.80;54.50;;;;;;4985553;28;20220;-63
2022/07/16 09:59:43;;;;;;;3.13;1.23;;;22.80;54.70;;;;;;5014650;28;20528;-63
2022/07/16 10:02:08;;;;;;;2.90;1.10;;;22.70;54.80;;;;;;5015475;28;20259;-62
2022/07/16 10:04:34;;;;;;;2.35;0.80;;;22.80;54.70;;;;;;5015229;28;20208;-64
2022/07/16 10:07:00;;;;;;;3.83;1.00;;;22.90;54.60;;;;;;5014430;28;20298;-64
2022/07/16 10:09:25;;;;;;;1.92;0.90;;;22.80;54.70;;;;;;5015572;28;20171;-63
2022/07/16 10:11:55;;;;;;;3.60;1.17;;;22.80;54.60;;;;;;5015374;28;20526;-64
2022/07/16 10:14:21;;;;;;;4.22;0.88;;;22.90;54.70;;;;;;5013656;28;20177;-64
2022/07/16 10:16:46;;;;;;;3.00;0.77;;;22.90;54.60;;;;;;5013938;28;20854;-64
2022/07/16 10:19:12;;;;;;;3.50;1.10;;;22.90;54.50;;;;;;5015093;28;20187;-64
2022/07/16 10:21:38;;;;;;;2.72;1.00;;;22.90;54.40;;;;;;5014286;28;20177;-64
2022/07/16 10:24:08;;;;;;;2.22;0.95;;;23.00;54.30;;;;;;5015298;28;20580;-64
2022/07/16 10:26:34;;;;;;;1.70;0.90;;;23.00;54.10;;;;;;5015368;28;20215;-64
2022/07/16 10:29:00;;;;;;;3.30;1.00;;;22.90;54.20;;;;;;5014442;28;20176;-64
2022/07/16 10:31:35;;;;;;;2.63;0.95;;;22.90;54.40;;;;;;5014954;28;20176;-64
2022/07/16 10:34:12;;;;;;;2.38;0.77;;;22.80;54.40;;;;;;5014549;28;20259;-63
2022/07/16 10:36:47;;;;;;;4.53;0.80;;;22.90;54.40;;;;;;5013899;28;20631;-64
2022/07/16 10:39:15;;;;;;;1.77;0.93;;;22.90;54.20;;;;;;5014845;28;20180;-63
2022/07/16 10:41:48;;;;;;;2.15;1.10;;;23.00;54.20;;;;;;5013996;28;20208;-63
2022/07/16 10:44:13;;;;;;;3.33;1.45;;;23.10;54.10;;;;;;5014579;28;20242;-63
2022/07/16 10:46:59;;;;;;;3.05;1.05;;;23.10;54.10;;;;;;5014742;28;20224;-63
2022/07/16 10:49:26;;;;;;;2.50;0.88;;;23.10;54.80;;;;;;5014145;28;20177;-62
2022/07/16 10:52:05;;;;;;;3.10;0.82;;;23.10;54.20;;;;;;5014639;28;20238;-63
2022/07/16 10:54:41;;;;;;;2.83;1.30;;;23.00;54.30;;;;;;5014643;28;20662;-63
2022/07/16 10:57:10;;;;;;;2.75;0.85;;;22.90;54.40;;;;;;5014008;28;20238;-64
2022/07/16 10:59:40;;;;;;;3.17;0.90;;;23.00;54.30;;;;;;5014730;28;20251;-63
2022/07/16 11:02:07;;;;;;;1.77;0.75;;;23.10;54.20;;;;;;5014535;28;20187;-64
2022/07/16 11:04:40;;;;;;;2.10;0.90;;;23.10;54.10;;;;;;5013465;28;20208;-64
2022/07/16 11:07:13;;;;;;;1.70;1.05;;;23.10;54.00;;;;;;5014135;28;20250;-62
2022/07/16 11:09:41;;;;;;;4.32;0.90;;;23.10;54.10;;;;;;5013708;28;20239;-63
2022/07/16 11:12:06;;;;;;;4.32;1.13;;;23.10;54.20;;;;;;5014415;28;20181;-62
2022/07/16 11:14:32;;;;;;;2.33;0.85;;;23.00;54.20;;;;;;5014422;28;20714;-63
2022/07/16 11:16:58;;;;;;;3.28;0.88;;;23.00;54.30;;;;;;5013190;28;20677;-63
2022/07/16 11:19:23;;;;;;;2.80;0.80;;;23.10;54.20;;;;;;5014163;28;20627;-64
2022/07/16 11:21:56;;;;;;;4.22;0.93;;;23.10;54.00;;;;;;5013936;28;20195;-64
2022/07/16 11:24:23;;;;;;;6.32;1.05;;;23.20;53.90;;;;;;5013246;28;20208;-65
2022/07/16 11:26:49;;;;;;;2.95;1.00;;;23.30;53.80;;;;;;5013973;28;20263;-64
2022/07/16 11:29:14;;;;;;;1.42;0.77;;;23.30;53.80;;;;;;5014046;28;20225;-64
2022/07/16 11:31:40;;;;;;;2.47;1.00;;;23.20;53.90;;;;;;5013221;28;20191;-64
2022/07/16 11:34:09;;;;;;;4.20;1.10;;;23.10;54.10;;;;;;5013819;28;20176;-64
2022/07/16 11:36:35;;;;;;;3.35;0.98;;;23.10;54.20;;;;;;5013878;28;20177;-64
2022/07/16 11:39:05;;;;;;;3.67;1.13;;;23.10;54.10;;;;;;5012668;28;20173;-64
2022/07/16 11:41:31;;;;;;;3.50;0.80;;;23.20;54.00;;;;;;5013930;28;20218;-65
2022/07/16 11:43:57;;;;;;;1.88;0.85;;;23.20;53.90;;;;;;5013709;28;20208;-64
2022/07/16 11:46:27;;;;;;;3.42;1.00;;;23.20;53.70;;;;;;5012779;28;20536;-63
2022/07/16 11:48:52;;;;;;;2.13;0.82;;;23.30;53.80;;;;;;5013477;28;20207;-64
2022/07/16 11:51:18;;;;;;;4.20;0.90;;;23.30;53.80;;;;;;5013567;28;20208;-63
2022/07/16 11:53:51;;;;;;;1.00;0.70;;;23.40;53.70;;;;;;5012861;28;20180;-66
2022/07/16 11:56:39;;;;;;;2.00;0.93;;;23.40;53.70;;;;;;5013642;28;20180;-65
2022/07/16 11:59:28;;;;;;;1.90;0.80;;;23.40;53.70;;;;;;5012897;28;20177;-65
2022/07/16 12:02:03;;;;;;;2.63;0.90;;;23.40;53.70;;;;;;5012540;28;20204;-66
2022/07/16 12:04:43;;;;;;;4.28;1.15;;;23.40;53.60;;;;;;5013435;28;20176;-65
2022/07/16 12:07:10;;;;;;;10.52;1.08;;;23.40;53.70;;;;;;5011451;28;20307;-65
2022/07/16 12:09:39;;;;;;;1.88;0.82;;;23.40;53.60;;;;;;5013365;28;20185;-67
2022/07/16 12:12:07;;;;;;;1.88;0.70;;;23.30;53.60;;;;;;5013464;28;20208;-66
2022/07/16 12:14:53;;;;;;;4.00;0.93;;;23.20;53.70;;;;;;5012553;28;20234;-67
2022/07/16 12:17:25;;;;;;;3.95;0.95;;;23.20;53.60;;;;;;5013139;28;20177;-68
2022/07/16 12:20:21;;;;;;;2.92;1.20;;;23.30;53.40;;;;;;5012769;28;20168;-68
2022/07/16 12:23:02;;;;;;;4.63;1.10;;;23.30;53.10;;;;;;5013144;28;20257;-67
2022/07/16 12:25:27;;;;;;;3.38;0.90;;;23.40;52.70;;;;;;5013254;28;20191;-67
2022/07/16 12:28:19;;;;;;;4.90;1.15;;;23.40;52.30;;;;;;5012072;28;20216;-65
2022/07/16 12:30:57;;;;;;;5.53;1.35;;;23.30;52.30;;;;;;5012824;28;20172;-67
2022/07/16 12:33:23;;;;;;;6.38;1.58;;;23.30;52.10;;;;;;5013128;28;20253;-68
2022/07/16 12:35:57;;;;;;;6.82;1.08;;;23.40;52.10;;;;;;5012042;28;20546;-66
2022/07/16 12:38:51;;;;;;;4.50;1.27;;;23.40;51.60;;;;;;5013234;28;20186;-53
2022/07/16 12:41:43;;;;;;;7.10;1.42;;;23.40;51.30;;;;;;5012419;28;20180;-56
2022/07/16 12:44:10;;;;;;;8.02;1.08;;;23.30;51.20;;;;;;5012798;28;20635;-53
2022/07/16 12:46:46;;;;;;;9.63;1.95;;;23.30;50.80;;;;;;5013005;28;20215;-54
2022/07/16 12:49:17;;;;;;;5.40;0.90;;;23.20;50.20;;;;;;5012157;28;20544;-54
2022/07/16 12:51:45;;;;;;;4.28;0.98;;;23.20;50.10;;;;;;5015054;28;20187;-53